Terminal Aerodrome Forecast
Issued by NWS Amarillo, TX

Home | Current Version | Previous Version | Text Only | Print | Product List | Glossary On
Versions: 1 2 3 4 5 6 7 8 9 10 11 12 13 14 15 16 17 18 19 20 21 22 23
000
FTUS44 KAMA 181100
TAFDHT
TAF
KDHT 181120Z 1812/1912 30007KT P6SM FEW050
     FM181600 27012KT P6SM SCT070
     FM182200 28008KT P6SM BKN070
     FM190800 35016KT P6SM BKN070=

USA.gov is the U.S. government's official web portal to all federal, state and local government web resources and services.